createdAt,value
2023-03-05T00:01:24.859Z,1.60
2023-03-05T00:03:54.602Z,2.27
2023-03-05T00:06:24.583Z,1.90
2023-03-05T00:08:53.363Z,1.60
2023-03-05T00:11:21.782Z,2.17
2023-03-05T00:13:52.059Z,2.03
2023-03-05T00:16:20.556Z,1.70
2023-03-05T00:18:48.678Z,2.03
2023-03-05T00:21:27.938Z,1.83
2023-03-05T00:23:56.312Z,2.50
2023-03-05T00:26:26.526Z,1.70
2023-03-05T00:28:55.999Z,2.20
2023-03-05T00:31:30.424Z,2.40
2023-03-05T00:34:09.543Z,1.77
2023-03-05T00:36:43.333Z,1.73
2023-03-05T00:39:12.069Z,2.10
2023-03-05T00:41:39.690Z,1.93
2023-03-05T00:44:07.644Z,2.00
2023-03-05T00:46:35.037Z,2.03
2023-03-05T00:49:02.317Z,2.43
2023-03-05T00:51:29.752Z,1.90
2023-03-05T00:53:57.185Z,1.63
2023-03-05T00:56:24.550Z,1.43
2023-03-05T00:58:53.228Z,2.50
2023-03-05T01:01:20.760Z,1.73
2023-03-05T01:03:48.258Z,2.40
2023-03-05T01:06:17.341Z,1.80
2023-03-05T01:08:45.710Z,1.73
2023-03-05T01:11:14.408Z,1.73
2023-03-05T01:13:41.664Z,2.07
2023-03-05T01:16:09.252Z,1.57
2023-03-05T01:18:38.795Z,1.70
2023-03-05T01:21:06.375Z,1.80
2023-03-05T01:23:35.703Z,1.50
2023-03-05T01:26:03.900Z,1.90
2023-03-05T01:28:32.417Z,2.43
2023-03-05T01:31:00.943Z,2.20
2023-03-05T01:33:28.237Z,1.83
2023-03-05T01:35:55.492Z,1.97
2023-03-05T01:38:22.845Z,1.80
2023-03-05T01:40:51.003Z,1.67
2023-03-05T01:43:27.401Z,1.70
2023-03-05T01:46:13.505Z,1.53
2023-03-05T01:48:44.274Z,1.60
2023-03-05T01:51:12.075Z,1.53
2023-03-05T01:53:40.050Z,1.20
2023-03-05T01:56:07.605Z,1.30
2023-03-05T01:58:35.070Z,1.47
2023-03-05T02:01:02.737Z,1.90
2023-03-05T02:03:30.278Z,1.50
2023-03-05T02:05:57.763Z,1.33
2023-03-05T02:08:25.308Z,1.13
2023-03-05T02:10:56.378Z,1.53
2023-03-05T02:13:31.724Z,1.40
2023-03-05T02:16:01.790Z,1.60
2023-03-05T02:18:29.265Z,1.30
2023-03-05T02:20:56.488Z,1.73
2023-03-05T02:23:29.391Z,1.60
2023-03-05T02:25:56.931Z,1.60
2023-03-05T02:28:35.190Z,2.00
2023-03-05T02:31:07.494Z,1.77
2023-03-05T02:33:34.730Z,2.13
2023-03-05T02:36:02.139Z,1.60
2023-03-05T02:38:29.692Z,1.90
2023-03-05T02:40:56.906Z,1.50
2023-03-05T02:43:24.215Z,1.30
2023-03-05T02:45:51.516Z,1.53
2023-03-05T02:48:18.852Z,1.80
2023-03-05T02:50:46.889Z,1.40
2023-03-05T02:53:14.298Z,1.17
2023-03-05T02:55:41.852Z,1.60
2023-03-05T02:58:09.095Z,2.27
2023-03-05T03:00:36.342Z,1.27
2023-03-05T03:03:03.790Z,1.60
2023-03-05T03:05:31.066Z,1.80
2023-03-05T03:07:58.591Z,1.67
2023-03-05T03:10:25.874Z,1.70
2023-03-05T03:12:53.221Z,1.70
2023-03-05T03:15:20.593Z,1.30
2023-03-05T03:17:47.957Z,1.27
2023-03-05T03:20:17.314Z,1.70
2023-03-05T03:22:45.744Z,1.37
2023-03-05T03:25:23.074Z,1.63
2023-03-05T03:27:52.607Z,1.70
2023-03-05T03:30:20.051Z,1.70
2023-03-05T03:32:47.380Z,1.63
2023-03-05T03:35:14.817Z,1.30
2023-03-05T03:37:42.116Z,1.87
2023-03-05T03:40:11.469Z,1.50
2023-03-05T03:42:38.776Z,1.80
2023-03-05T03:45:06.602Z,1.20
2023-03-05T03:47:33.786Z,1.23
2023-03-05T03:50:01.229Z,1.87
2023-03-05T03:52:28.447Z,1.53
2023-03-05T03:55:01.641Z,1.97
2023-03-05T03:57:30.643Z,1.70
2023-03-05T03:59:57.920Z,1.80
2023-03-05T04:02:26.063Z,1.43
2023-03-05T04:04:53.855Z,1.63
2023-03-05T04:07:21.230Z,1.30
2023-03-05T04:09:48.549Z,1.80
2023-03-05T04:12:18.082Z,1.80
2023-03-05T04:14:47.269Z,1.87
2023-03-05T04:17:15.920Z,1.63
2023-03-05T04:19:43.447Z,1.63
2023-03-05T04:22:13.077Z,1.50
2023-03-05T04:24:41.038Z,1.83
2023-03-05T04:27:08.885Z,1.50
2023-03-05T04:29:36.352Z,1.67
2023-03-05T04:32:04.214Z,1.40
2023-03-05T04:34:32.800Z,1.70
2023-03-05T04:37:00.029Z,1.50
2023-03-05T04:39:27.543Z,1.53
2023-03-05T04:41:54.776Z,1.93
2023-03-05T04:44:23.422Z,1.83
2023-03-05T04:46:50.792Z,1.70
2023-03-05T04:49:18.128Z,1.40
2023-03-05T04:51:45.393Z,1.53
2023-03-05T04:54:12.701Z,1.77
2023-03-05T04:56:39.949Z,1.67
2023-03-05T04:59:07.191Z,1.50
2023-03-05T05:01:35.488Z,1.70
2023-03-05T05:04:02.999Z,1.40
2023-03-05T05:06:30.245Z,1.80
2023-03-05T05:08:57.526Z,1.90
2023-03-05T05:11:24.830Z,1.87
2023-03-05T05:13:52.228Z,1.60
2023-03-05T05:16:19.687Z,1.60
2023-03-05T05:18:46.946Z,1.93
2023-03-05T05:21:15.137Z,1.73
2023-03-05T05:23:42.446Z,1.80
2023-03-05T05:26:14.124Z,2.03
2023-03-05T05:28:43.672Z,1.20
2023-03-05T05:31:14.112Z,1.90
2023-03-05T05:33:42.045Z,1.40
2023-03-05T05:36:13.328Z,1.87
2023-03-05T05:38:40.706Z,1.90
2023-03-05T05:41:11.018Z,1.97
2023-03-05T05:43:38.818Z,2.13
2023-03-05T05:46:15.044Z,2.33
2023-03-05T05:48:43.412Z,1.93
2023-03-05T05:51:14.918Z,1.80
2023-03-05T05:53:43.108Z,1.97
2023-03-05T05:56:12.346Z,1.67
2023-03-05T05:58:40.567Z,2.00
2023-03-05T06:01:37.383Z,1.63
2023-03-05T06:04:04.668Z,2.07
2023-03-05T06:06:33.398Z,2.67
2023-03-05T06:09:00.753Z,2.10
2023-03-05T06:11:28.070Z,1.87
2023-03-05T06:13:55.345Z,2.27
2023-03-05T06:16:24.796Z,2.43
2023-03-05T06:18:52.744Z,2.60
2023-03-05T06:21:21.682Z,2.33
2023-03-05T06:23:50.084Z,2.57
2023-03-05T06:26:20.178Z,2.70
2023-03-05T06:28:47.580Z,3.60
2023-03-05T06:31:18.666Z,3.57
2023-03-05T06:33:46.108Z,1.67
2023-03-05T06:36:16.735Z,2.20
2023-03-05T06:38:44.697Z,1.90
2023-03-05T06:41:19.644Z,2.17
2023-03-05T06:43:48.300Z,2.80
2023-03-05T06:46:19.475Z,1.97
2023-03-05T06:48:47.000Z,1.83
2023-03-05T06:51:22.914Z,3.10
2023-03-05T06:53:50.316Z,2.63
2023-03-05T06:56:19.182Z,2.33
2023-03-05T06:58:48.682Z,2.47
2023-03-05T07:01:16.573Z,2.67
2023-03-05T07:03:44.693Z,4.20
2023-03-05T07:06:15.894Z,2.80
2023-03-05T07:08:44.858Z,3.03
2023-03-05T07:11:14.542Z,2.90
2023-03-05T07:13:43.229Z,2.87
2023-03-05T07:16:14.399Z,2.90
2023-03-05T07:18:41.827Z,3.00
2023-03-05T07:21:19.794Z,2.80
2023-03-05T07:23:47.189Z,2.77
2023-03-05T07:26:15.408Z,2.93
2023-03-05T07:28:43.016Z,3.37
2023-03-05T07:31:21.620Z,4.20
2023-03-05T07:33:50.449Z,3.10
2023-03-05T07:36:17.918Z,2.93
2023-03-05T07:38:45.812Z,2.77
2023-03-05T07:41:19.671Z,2.93
2023-03-05T07:43:48.757Z,2.80
2023-03-05T07:46:18.180Z,2.77
2023-03-05T07:48:45.513Z,2.20
2023-03-05T07:51:16.007Z,2.40
2023-03-05T07:53:44.667Z,3.43
2023-03-05T07:56:12.494Z,2.43
2023-03-05T07:58:39.921Z,2.97
2023-03-05T08:01:16.597Z,2.50
2023-03-05T08:03:44.442Z,2.20
2023-03-05T08:06:12.571Z,2.80
2023-03-05T08:08:40.068Z,2.37
2023-03-05T08:11:13.203Z,3.20
2023-03-05T08:13:41.088Z,2.40
2023-03-05T08:16:11.890Z,2.47
2023-03-05T08:18:39.246Z,2.80
2023-03-05T08:21:07.090Z,2.00
2023-03-05T08:23:38.133Z,2.73
2023-03-05T08:26:15.163Z,2.23
2023-03-05T08:28:42.538Z,3.00
2023-03-05T08:31:14.574Z,2.60
2023-03-05T08:33:42.380Z,2.37
2023-03-05T08:36:10.529Z,2.73
2023-03-05T08:38:38.344Z,3.17
2023-03-05T08:41:06.009Z,3.13
2023-03-05T08:43:33.533Z,3.07
2023-03-05T08:46:02.057Z,3.00
2023-03-05T08:48:31.762Z,2.70
2023-03-05T08:51:05.574Z,3.30
2023-03-05T08:53:32.953Z,3.83
2023-03-05T08:56:01.470Z,3.57
2023-03-05T08:58:28.712Z,3.47
2023-03-05T09:00:56.422Z,2.47
2023-03-05T09:03:23.780Z,3.40
2023-03-05T09:05:51.496Z,3.00
2023-03-05T09:08:19.267Z,3.60
2023-03-05T09:10:46.729Z,5.67
2023-03-05T09:13:14.066Z,3.60
2023-03-05T09:15:41.467Z,3.27
2023-03-05T09:18:19.403Z,3.77
2023-03-05T09:20:46.984Z,3.77
2023-03-05T09:23:14.193Z,3.20
2023-03-05T09:25:41.770Z,2.60
2023-03-05T09:28:09.217Z,3.50
2023-03-05T09:30:36.561Z,3.27
2023-03-05T09:33:04.414Z,3.17
2023-03-05T09:35:35.464Z,2.97
2023-03-05T09:38:03.912Z,2.90
2023-03-05T09:40:49.110Z,3.20
2023-03-05T09:44:00.941Z,3.00
2023-03-05T09:46:28.149Z,3.47
2023-03-05T09:49:17.725Z,2.73
2023-03-05T09:51:46.775Z,3.53
2023-03-05T09:54:21.519Z,3.67
2023-03-05T09:56:58.614Z,4.33
2023-03-05T09:59:29.117Z,3.10
2023-03-05T10:02:01.416Z,4.30
2023-03-05T10:04:45.745Z,3.50
2023-03-05T10:07:19.199Z,3.43
2023-03-05T10:10:02.979Z,4.00
2023-03-05T10:12:33.305Z,4.47
2023-03-05T10:15:03.003Z,4.13
2023-03-05T10:17:46.287Z,4.47
2023-03-05T10:20:22.382Z,4.37
2023-03-05T10:23:07.935Z,4.40
2023-03-05T10:25:41.343Z,5.00
2023-03-05T10:28:19.638Z,5.33
2023-03-05T10:30:58.250Z,5.37
2023-03-05T10:33:43.179Z,5.33
2023-03-05T10:36:22.638Z,6.37
2023-03-05T10:39:23.451Z,6.07
2023-03-05T10:41:56.506Z,6.17
2023-03-05T10:44:33.185Z,6.90
2023-03-05T10:47:02.991Z,6.57
2023-03-05T10:49:35.088Z,6.63
2023-03-05T10:52:18.566Z,7.07
2023-03-05T10:54:46.162Z,6.97
2023-03-05T10:57:25.646Z,7.67
2023-03-05T11:00:02.602Z,6.93
2023-03-05T11:02:29.924Z,6.53
2023-03-05T11:04:57.339Z,7.30
2023-03-05T11:07:24.615Z,7.47
2023-03-05T11:10:01.903Z,7.13
2023-03-05T11:12:32.864Z,6.67
2023-03-05T11:15:05.633Z,6.40
2023-03-05T11:17:44.956Z,5.97
2023-03-05T11:20:27.564Z,6.60
2023-03-05T11:23:11.732Z,5.93
2023-03-05T11:26:12.415Z,5.43
2023-03-05T11:29:01.668Z,6.03
2023-03-05T11:31:31.877Z,6.03
2023-03-05T11:34:08.632Z,5.10
2023-03-05T11:36:43.817Z,5.20
2023-03-05T11:39:16.861Z,6.00
2023-03-05T11:41:50.062Z,5.63
2023-03-05T11:44:34.300Z,5.63
2023-03-05T11:47:34.532Z,6.33
2023-03-05T11:50:31.994Z,6.13
2023-03-05T11:53:19.042Z,5.63
2023-03-05T11:55:47.689Z,5.67
2023-03-05T11:58:30.098Z,5.93
2023-03-05T12:00:58.642Z,6.13
2023-03-05T12:03:31.738Z,5.50
2023-03-05T12:06:17.877Z,5.20
2023-03-05T12:08:49.710Z,5.20
2023-03-05T12:11:27.381Z,5.07
2023-03-05T12:14:17.252Z,5.37
2023-03-05T12:17:07.389Z,6.33
2023-03-05T12:20:00.906Z,6.57
2023-03-05T12:22:37.382Z,5.47
2023-03-05T12:25:46.928Z,12.77
2023-03-05T12:28:43.327Z,5.23
2023-03-05T12:31:27.587Z,5.70
2023-03-05T12:33:54.951Z,6.20
2023-03-05T12:36:22.121Z,5.60
2023-03-05T12:38:54.477Z,5.03
2023-03-05T12:41:27.430Z,6.57
2023-03-05T12:44:17.933Z,5.47
2023-03-05T12:47:06.288Z,4.20
2023-03-05T12:49:40.447Z,4.63
2023-03-05T12:52:22.509Z,4.70
2023-03-05T12:55:27.001Z,3.77
2023-03-05T12:58:04.505Z,4.30
2023-03-05T13:00:46.597Z,4.40
2023-03-05T13:03:30.509Z,4.07
2023-03-05T13:06:00.956Z,3.80
2023-03-05T13:08:38.429Z,4.10
2023-03-05T13:11:18.556Z,3.80
2023-03-05T13:13:47.871Z,3.90
2023-03-05T13:16:25.572Z,4.63
2023-03-05T13:18:54.457Z,2.92
2023-03-05T13:21:27.357Z,3.07
2023-03-05T13:24:00.396Z,4.20
2023-03-05T13:26:37.411Z,4.47
2023-03-05T13:29:07.960Z,4.10
2023-03-05T13:31:40.351Z,4.78
2023-03-05T13:34:20.356Z,4.77
2023-03-05T13:37:01.288Z,5.70
2023-03-05T13:39:36.530Z,7.43
2023-03-05T13:42:07.184Z,7.23
2023-03-05T13:44:34.863Z,5.80
2023-03-05T13:47:20.601Z,6.37
2023-03-05T13:49:55.029Z,6.57
2023-03-05T13:52:31.559Z,6.87
2023-03-05T13:55:00.017Z,8.23
2023-03-05T13:57:34.853Z,7.03
2023-03-05T14:00:03.874Z,8.13
2023-03-05T14:02:33.469Z,6.40
2023-03-05T14:05:01.040Z,6.90
2023-03-05T14:07:39.748Z,6.57
2023-03-05T14:10:29.399Z,6.37
2023-03-05T14:12:58.064Z,7.90
2023-03-05T14:15:28.980Z,6.82
2023-03-05T14:18:11.591Z,6.38
2023-03-05T14:20:40.775Z,5.90
2023-03-05T14:23:35.565Z,6.03
2023-03-05T14:26:32.119Z,5.80
2023-03-05T14:29:03.331Z,5.97
2023-03-05T14:31:36.549Z,6.30
2023-03-05T14:34:06.688Z,6.53
2023-03-05T14:36:34.809Z,6.17
2023-03-05T14:39:02.279Z,5.57
2023-03-05T14:41:45.356Z,5.13
2023-03-05T14:44:15.918Z,5.03
2023-03-05T14:46:47.855Z,6.32
2023-03-05T14:49:15.607Z,6.20
2023-03-05T14:51:45.876Z,5.77
2023-03-05T14:54:26.175Z,5.00
2023-03-05T14:56:53.715Z,5.13
2023-03-05T14:59:21.907Z,6.13
2023-03-05T15:01:50.808Z,5.40
2023-03-05T15:04:21.084Z,7.07
2023-03-05T15:06:51.039Z,5.83
2023-03-05T15:09:20.919Z,5.80
2023-03-05T15:11:48.938Z,5.67
2023-03-05T15:14:16.492Z,4.73
2023-03-05T15:16:46.067Z,5.80
2023-03-05T15:19:13.936Z,7.27
2023-03-05T15:21:41.378Z,6.30
2023-03-05T15:24:11.197Z,6.67
2023-03-05T15:26:38.883Z,5.33
2023-03-05T15:29:06.248Z,5.97
2023-03-05T15:31:38.577Z,6.53
2023-03-05T15:34:06.758Z,5.97
2023-03-05T15:36:34.136Z,5.83
2023-03-05T15:39:01.428Z,6.40
2023-03-05T15:41:28.631Z,7.33
2023-03-05T15:43:56.044Z,6.87
2023-03-05T15:46:23.916Z,6.90
2023-03-05T15:48:51.264Z,6.63
2023-03-05T15:51:20.170Z,7.37
2023-03-05T15:53:47.909Z,6.73
2023-03-05T15:56:19.112Z,6.43
2023-03-05T15:58:49.250Z,8.67
2023-03-05T16:01:19.414Z,8.33
2023-03-05T16:03:47.200Z,7.03
2023-03-05T16:06:15.971Z,7.30
2023-03-05T16:08:44.580Z,7.93
2023-03-05T16:11:12.714Z,7.60
2023-03-05T16:13:41.908Z,7.57
2023-03-05T16:16:10.067Z,7.77
2023-03-05T16:18:41.932Z,7.27
2023-03-05T16:21:10.746Z,6.77
2023-03-05T16:23:38.205Z,7.07
2023-03-05T16:26:05.805Z,7.43
2023-03-05T16:28:33.407Z,6.33
2023-03-05T16:31:01.888Z,6.93
2023-03-05T16:33:29.192Z,7.90
2023-03-05T16:36:20.750Z,8.67
2023-03-05T16:38:49.527Z,7.53
2023-03-05T16:41:17.612Z,8.27
2023-03-05T16:43:45.245Z,8.60
2023-03-05T16:46:14.166Z,8.33
2023-03-05T16:48:42.909Z,7.70
2023-03-05T16:51:11.672Z,7.90
2023-03-05T16:53:39.703Z,7.90
2023-03-05T16:56:08.322Z,8.33
2023-03-05T16:58:37.926Z,8.73
2023-03-05T17:01:10.666Z,8.80
2023-03-05T17:03:41.506Z,8.40
2023-03-05T17:06:24.173Z,8.63
2023-03-05T17:08:52.400Z,7.73
2023-03-05T17:11:20.671Z,7.97
2023-03-05T17:13:49.194Z,8.43
2023-03-05T17:16:18.279Z,7.90
2023-03-05T17:18:45.609Z,7.10
2023-03-05T17:21:13.491Z,7.67
2023-03-05T17:23:41.473Z,8.67
2023-03-05T17:26:12.762Z,7.00
2023-03-05T17:28:40.248Z,8.20
2023-03-05T17:31:08.326Z,8.10
2023-03-05T17:33:37.005Z,6.73
2023-03-05T17:36:05.511Z,7.97
2023-03-05T17:38:32.740Z,7.20
2023-03-05T17:41:00.112Z,7.07
2023-03-05T17:43:27.932Z,7.20
2023-03-05T17:45:59.618Z,7.43
2023-03-05T17:48:28.194Z,7.17
2023-03-05T17:50:55.923Z,6.53
2023-03-05T17:53:23.307Z,6.40
2023-03-05T17:55:50.770Z,7.97
2023-03-05T17:58:18.141Z,6.27
2023-03-05T18:00:45.930Z,5.80
2023-03-05T18:03:13.149Z,5.83
2023-03-05T18:05:41.046Z,6.00
2023-03-05T18:08:08.371Z,5.60
2023-03-05T18:10:35.895Z,6.50
2023-03-05T18:13:03.332Z,5.83
2023-03-05T18:15:30.844Z,6.23
2023-03-05T18:17:58.736Z,6.00
2023-03-05T18:20:30.204Z,6.43
2023-03-05T18:22:59.153Z,5.03
2023-03-05T18:25:31.000Z,5.63
2023-03-05T18:28:03.576Z,6.20
2023-03-05T18:30:31.765Z,5.67
2023-03-05T18:33:00.282Z,6.07
2023-03-05T18:35:29.255Z,6.07
2023-03-05T18:37:56.872Z,5.93
2023-03-05T18:40:29.016Z,6.27
2023-03-05T18:42:58.798Z,6.17
2023-03-05T18:45:26.195Z,14.73
2023-03-05T18:47:54.449Z,7.03
2023-03-05T18:50:23.760Z,6.07
2023-03-05T18:52:51.680Z,5.90
2023-03-05T18:55:21.823Z,5.60
2023-03-05T18:57:49.666Z,5.83
2023-03-05T19:00:20.490Z,5.70
2023-03-05T19:02:47.825Z,5.97
2023-03-05T19:05:16.950Z,5.97
2023-03-05T19:07:44.626Z,6.63
2023-03-05T19:10:14.538Z,10.93
2023-03-05T19:13:08.040Z,6.73
2023-03-05T19:15:56.261Z,6.57
2023-03-05T19:18:35.854Z,5.93
2023-03-05T19:21:16.333Z,5.83
2023-03-05T19:23:43.617Z,5.93
2023-03-05T19:26:11.268Z,6.67
2023-03-05T19:28:38.600Z,6.90
2023-03-05T19:31:06.104Z,6.00
2023-03-05T19:33:33.460Z,5.70
2023-03-05T19:36:00.765Z,5.40
2023-03-05T19:38:28.027Z,6.00
2023-03-05T19:40:55.273Z,6.63
2023-03-05T19:43:22.496Z,6.70
2023-03-05T19:45:49.695Z,6.40
2023-03-05T19:48:17.050Z,7.73
2023-03-05T19:50:44.260Z,7.27
2023-03-05T19:53:11.530Z,7.90
2023-03-05T19:55:40.754Z,7.37
2023-03-05T19:58:07.998Z,7.63
2023-03-05T20:00:35.384Z,8.23
2023-03-05T20:03:02.618Z,7.27
2023-03-05T20:05:29.999Z,6.87
2023-03-05T20:07:57.417Z,7.17
2023-03-05T20:10:24.787Z,6.17
2023-03-05T20:12:52.681Z,5.83
2023-03-05T20:15:28.200Z,6.77
2023-03-05T20:17:58.733Z,5.93
2023-03-05T20:20:26.032Z,6.90
2023-03-05T20:22:53.981Z,6.23
2023-03-05T20:25:22.879Z,6.17
2023-03-05T20:27:50.495Z,6.53
2023-03-05T20:30:18.240Z,7.03
2023-03-05T20:32:45.776Z,6.53
2023-03-05T20:35:15.907Z,6.83
2023-03-05T20:38:30.008Z,6.47
2023-03-05T20:41:05.966Z,6.60
2023-03-05T20:43:40.967Z,6.97
2023-03-05T20:46:27.002Z,7.27
2023-03-05T20:48:57.738Z,8.13
2023-03-05T20:51:30.464Z,7.97
2023-03-05T20:54:03.241Z,7.83
2023-03-05T20:56:33.260Z,8.63
2023-03-05T20:59:04.216Z,8.40
2023-03-05T21:01:33.040Z,10.03
2023-03-05T21:04:01.428Z,9.50
2023-03-05T21:06:31.279Z,9.63
2023-03-05T21:08:59.741Z,9.53
2023-03-05T21:11:27.493Z,9.90
2023-03-05T21:13:54.889Z,9.67
2023-03-05T21:16:26.104Z,9.67
2023-03-05T21:18:55.852Z,9.50
2023-03-05T21:21:23.608Z,8.87
2023-03-05T21:23:51.017Z,9.97
2023-03-05T21:26:18.343Z,9.50
2023-03-05T21:28:47.318Z,9.93
2023-03-05T21:31:18.272Z,9.50
2023-03-05T21:33:47.043Z,9.27
2023-03-05T21:36:18.473Z,11.23
2023-03-05T21:38:49.260Z,10.53
2023-03-05T21:41:18.193Z,10.77
2023-03-05T21:43:46.099Z,9.83
2023-03-05T21:46:14.610Z,10.53
2023-03-05T21:48:42.000Z,9.87
2023-03-05T21:51:12.514Z,9.67
2023-03-05T21:53:42.781Z,10.37
2023-03-05T21:56:25.468Z,10.97
2023-03-05T21:58:54.095Z,10.60
2023-03-05T22:01:22.235Z,10.03
2023-03-05T22:03:50.475Z,9.93
2023-03-05T22:06:19.779Z,10.47
2023-03-05T22:08:47.405Z,9.67
2023-03-05T22:11:17.319Z,10.07
2023-03-05T22:13:44.875Z,9.77
2023-03-05T22:16:20.079Z,9.27
2023-03-05T22:18:47.437Z,8.90
2023-03-05T22:21:18.342Z,9.30
2023-03-05T22:23:45.775Z,10.57
2023-03-05T22:26:13.141Z,9.20
2023-03-05T22:28:40.721Z,9.40
2023-03-05T22:31:08.894Z,8.93
2023-03-05T22:33:36.718Z,9.73
2023-03-05T22:36:09.335Z,9.73
2023-03-05T22:38:36.825Z,8.90
2023-03-05T22:41:10.193Z,9.47
2023-03-05T22:43:37.682Z,8.90
2023-03-05T22:46:13.600Z,9.37
2023-03-05T22:48:40.957Z,7.83
2023-03-05T22:51:09.471Z,7.40
2023-03-05T22:53:36.950Z,6.27
2023-03-05T22:56:09.647Z,5.90
2023-03-05T22:58:37.689Z,7.53
2023-03-05T23:01:31.028Z,6.53
2023-03-05T23:04:28.961Z,6.40
2023-03-05T23:07:11.525Z,5.77
2023-03-05T23:09:38.902Z,5.57
2023-03-05T23:12:06.566Z,5.97
2023-03-05T23:14:33.828Z,5.57
2023-03-05T23:17:01.141Z,5.93
2023-03-05T23:19:28.536Z,6.03
2023-03-05T23:21:55.767Z,6.70
2023-03-05T23:24:23.148Z,4.93
2023-03-05T23:26:50.375Z,5.83
2023-03-05T23:30:10.909Z,5.73
2023-03-05T23:32:38.273Z,5.73
2023-03-05T23:35:06.045Z,5.97
2023-03-05T23:37:33.360Z,6.27
2023-03-05T23:40:00.617Z,6.47
2023-03-05T23:42:27.875Z,7.07
2023-03-05T23:44:55.223Z,6.27
2023-03-05T23:47:22.460Z,6.77
2023-03-05T23:49:49.841Z,6.70
2023-03-05T23:52:17.032Z,6.07
2023-03-05T23:54:44.237Z,5.70
2023-03-05T23:57:11.413Z,6.27
2023-03-05T23:59:38.790Z,5.90
